Time;durP1;ratioP1;P1;durP2;ratioP2;P2;SDS_P1;SDS_P2;PMS_P1;PMS_P2;Temp;Humidity;BMP_temperature;BMP_pressure;BME280_temperature;BME280_humidity;BME280_pressure;Samples;Min_cycle;Max_cycle;Signal;HPM_P1;HPM_P2
2022/07/05 05:08:20;;;;;;;7.45;2.00;;;;;;;;;;10382184;28;20227;-77
2022/07/05 05:13:21;;;;;;;4.38;2.00;;;;;;;;;;10377810;28;20189;-77
2022/07/05 05:18:26;;;;;;;2.63;1.92;;;;;;;;;;10382185;28;20294;-77
2022/07/05 05:23:27;;;;;;;2.90;1.70;;;;;;;;;;10383444;28;20216;-77
2022/07/05 05:28:29;;;;;;;2.10;1.42;;;;;;;;;;10382824;28;20191;-77
2022/07/05 05:33:30;;;;;;;3.10;1.50;;;;;;;;;;10382036;28;20741;-76
2022/07/05 05:38:31;;;;;;;3.72;1.25;;;;;;;;;;10383427;28;20195;-77
2022/07/05 05:43:32;;;;;;;3.38;0.63;;;;;;;;;;10377868;28;20218;-75
2022/07/05 05:48:34;;;;;;;3.30;0.70;;;;;;;;;;10383588;28;20211;-78
2022/07/05 05:53:35;;;;;;;0.80;0.75;;;;;;;;;;10378160;28;20792;-76
2022/07/05 05:58:36;;;;;;;3.05;0.70;;;;;;;;;;10380967;28;20273;-76
2022/07/05 06:03:37;;;;;;;2.13;0.65;;;;;;;;;;10376674;28;20227;-76
2022/07/05 06:08:38;;;;;;;5.68;0.77;;;;;;;;;;10380324;28;20810;-76
2022/07/05 06:13:39;;;;;;;1.88;0.55;;;;;;;;;;10381019;28;20219;-78
2022/07/05 06:18:40;;;;;;;2.97;0.75;;;;;;;;;;10363367;28;20262;-76
2022/07/05 06:23:41;;;;;;;1.05;0.63;;;;;;;;;;10379841;28;20582;-76
2022/07/05 06:28:42;;;;;;;2.30;0.50;;;;;;;;;;10388392;28;20187;-76
2022/07/05 06:33:44;;;;;;;1.48;0.57;;;;;;;;;;10387774;28;20594;-76
2022/07/05 06:38:45;;;;;;;2.30;0.60;;;;;;;;;;10387205;28;20215;-76
2022/07/05 06:43:46;;;;;;;3.80;0.80;;;;;;;;;;10374226;28;20219;-76
2022/07/05 06:48:57;;;;;;;0.75;0.40;;;;;;;;;;10389223;28;20203;-75
2022/07/05 06:53:58;;;;;;;0.68;0.40;;;;;;;;;;10386222;28;20207;-77
2022/07/05 06:58:59;;;;;;;0.50;0.35;;;;;;;;;;10352555;28;20260;-74
2022/07/05 07:04:00;;;;;;;0.90;0.47;;;;;;;;;;10385194;28;20358;-74
2022/07/05 07:09:22;;;;;;;3.00;0.52;;;;;;;;;;10385282;28;20224;-76
2022/07/05 07:14:23;;;;;;;0.52;0.52;;;;;;;;;;10386473;28;20199;-75
2022/07/05 07:19:24;;;;;;;1.42;0.50;;;;;;;;;;10384108;28;20219;-74
2022/07/05 07:24:25;;;;;;;1.10;0.50;;;;;;;;;;10385833;28;20220;-75
2022/07/05 07:29:26;;;;;;;0.80;0.70;;;;;;;;;;10388613;28;20228;-75
2022/07/05 07:34:28;;;;;;;1.52;0.50;;;;;;;;;;10386785;28;20761;-75
2022/07/05 07:39:29;;;;;;;2.13;0.55;;;;;;;;;;10386978;28;20245;-76
2022/07/05 07:44:30;;;;;;;2.97;0.73;;;;;;;;;;10384253;28;20243;-75
2022/07/05 07:49:31;;;;;;;0.93;0.50;;;;;;;;;;10384612;28;20207;-76
2022/07/05 07:54:32;;;;;;;1.45;0.50;;;;;;;;;;10383264;28;20199;-75
2022/07/05 07:59:33;;;;;;;3.03;0.77;;;;;;;;;;10363553;28;20195;-75
2022/07/05 08:04:34;;;;;;;3.10;0.68;;;;;;;;;;10370069;28;20606;-75
2022/07/05 08:09:35;;;;;;;2.75;1.00;;;;;;;;;;10383025;28;20219;-75
2022/07/05 08:14:36;;;;;;;1.67;0.60;;;;;;;;;;10382468;28;20253;-75
2022/07/05 08:24:57;;;;;;;1.90;0.90;;;;;;;;;;10383618;28;20712;-75
2022/07/05 08:29:58;;;;;;;1.73;0.90;;;;;;;;;;10383863;28;20282;-75
2022/07/05 08:34:59;;;;;;;0.93;0.80;;;;;;;;;;10369167;28;20337;-76
2022/07/05 08:40:00;;;;;;;1.92;0.80;;;;;;;;;;10382855;28;20199;-75
2022/07/05 08:45:03;;;;;;;1.17;0.80;;;;;;;;;;10382976;28;20782;-73
2022/07/05 08:50:04;;;;;;;1.35;0.60;;;;;;;;;;10380023;28;20240;-74
2022/07/05 08:55:05;;;;;;;6.30;0.80;;;;;;;;;;10364919;28;20208;-74
2022/07/05 09:00:07;;;;;;;5.95;0.77;;;;;;;;;;10383643;28;20199;-75
2022/07/05 09:05:09;;;;;;;2.60;0.90;;;;;;;;;;10379436;28;20235;-76
2022/07/05 09:10:12;;;;;;;2.50;1.10;;;;;;;;;;10380034;28;20219;-74
2022/07/05 09:15:13;;;;;;;2.90;0.80;;;;;;;;;;10362668;28;20199;-75
2022/07/05 09:20:15;;;;;;;4.20;0.70;;;;;;;;;;10382035;28;20219;-74
2022/07/05 09:25:17;;;;;;;1.48;0.75;;;;;;;;;;10380022;28;20204;-74
2022/07/05 09:30:38;;;;;;;2.58;0.88;;;;;;;;;;10379927;28;20208;-74
2022/07/05 09:35:43;;;;;;;1.27;0.60;;;;;;;;;;10380375;28;20210;-73
2022/07/05 09:40:55;;;;;;;2.38;1.15;;;;;;;;;;10379916;28;20632;-73
2022/07/05 09:46:03;;;;;;;4.40;0.70;;;;;;;;;;10380800;28;20270;-72
2022/07/05 09:51:06;;;;;;;1.38;0.70;;;;;;;;;;10379224;28;20682;-73
2022/07/05 09:56:07;;;;;;;0.95;0.80;;;;;;;;;;10379849;28;20192;-72
2022/07/05 10:01:23;;;;;;;4.38;0.82;;;;;;;;;;10376136;28;20219;-74
2022/07/05 10:06:26;;;;;;;2.25;0.82;;;;;;;;;;10377358;28;20705;-74
2022/07/05 10:11:27;;;;;;;1.25;0.80;;;;;;;;;;10377766;28;20880;-74
2022/07/05 10:16:28;;;;;;;2.60;0.90;;;;;;;;;;10372879;28;20191;-72
2022/07/05 10:21:29;;;;;;;0.85;0.70;;;;;;;;;;10377500;28;21760;-73
2022/07/05 10:26:33;;;;;;;1.98;0.63;;;;;;;;;;10374617;28;20219;-72
2022/07/05 10:31:34;;;;;;;1.48;0.80;;;;;;;;;;10377114;28;20221;-73
2022/07/05 10:36:37;;;;;;;3.20;0.77;;;;;;;;;;10379349;28;20216;-73
2022/07/05 10:41:40;;;;;;;2.70;0.88;;;;;;;;;;10377517;28;20633;-73
2022/07/05 10:46:43;;;;;;;0.70;0.70;;;;;;;;;;10378731;28;20219;-73
2022/07/05 10:51:44;;;;;;;2.17;0.60;;;;;;;;;;10379552;28;20220;-71
2022/07/05 10:57:05;;;;;;;1.25;0.70;;;;;;;;;;10375513;28;20638;-73
2022/07/05 11:02:13;;;;;;;0.68;0.68;;;;;;;;;;10376379;28;20222;-72
2022/07/05 11:07:14;;;;;;;0.80;0.80;;;;;;;;;;10377653;28;20975;-72
2022/07/05 11:12:15;;;;;;;2.15;0.80;;;;;;;;;;10379892;28;20183;-72
2022/07/05 11:17:25;;;;;;;3.05;1.00;;;;;;;;;;10384533;28;20690;-72
2022/07/05 11:22:26;;;;;;;2.88;0.95;;;;;;;;;;10382750;28;20969;-72
2022/07/05 11:27:28;;;;;;;3.50;0.85;;;;;;;;;;10384423;28;20235;-73
2022/07/05 11:32:29;;;;;;;2.28;0.80;;;;;;;;;;10382085;28;20599;-74
2022/07/05 11:37:34;;;;;;;2.55;0.90;;;;;;;;;;10384674;28;20243;-73
2022/07/05 11:42:41;;;;;;;1.80;1.00;;;;;;;;;;10385558;28;20682;-73
2022/07/05 11:47:43;;;;;;;2.88;1.08;;;;;;;;;;10384636;28;20224;-72
2022/07/05 11:52:45;;;;;;;0.80;0.80;;;;;;;;;;10384649;28;20804;-72
2022/07/05 11:57:50;;;;;;;3.85;0.82;;;;;;;;;;10383979;28;20540;-72
2022/07/05 12:02:51;;;;;;;0.55;0.55;;;;;;;;;;10383897;28;20222;-72
2022/07/05 12:07:53;;;;;;;0.93;0.70;;;;;;;;;;10383834;28;20224;-73
2022/07/05 12:12:54;;;;;;;2.63;0.77;;;;;;;;;;10382398;28;20733;-72
2022/07/05 12:17:55;;;;;;;2.05;0.65;;;;;;;;;;10381458;28;20302;-71
2022/07/05 12:22:58;;;;;;;2.70;0.90;;;;;;;;;;10379929;28;20195;-72
2022/07/05 12:27:59;;;;;;;1.98;0.80;;;;;;;;;;10382644;28;20191;-73
2022/07/05 12:33:04;;;;;;;2.55;0.70;;;;;;;;;;10381320;28;20703;-73
2022/07/05 12:38:16;;;;;;;0.93;0.60;;;;;;;;;;10383589;28;20675;-74
2022/07/05 12:43:18;;;;;;;1.10;0.80;;;;;;;;;;10379899;28;20208;-72
2022/07/05 12:48:31;;;;;;;3.00;0.60;;;;;;;;;;10373775;28;20212;-75
2022/07/05 12:59:10;;;;;;;4.43;0.60;;;;;;;;;;10380047;28;20195;-74
2022/07/05 13:04:12;;;;;;;1.45;0.63;;;;;;;;;;10380716;28;20266;-72
2022/07/05 13:09:14;;;;;;;1.55;0.50;;;;;;;;;;10380225;28;20358;-73
2022/07/05 13:14:15;;;;;;;1.70;0.63;;;;;;;;;;10381306;28;20199;-74
2022/07/05 13:19:16;;;;;;;0.93;0.60;;;;;;;;;;10362469;28;20238;-73
2022/07/05 13:24:17;;;;;;;1.15;0.45;;;;;;;;;;10381121;28;20407;-72
2022/07/05 13:29:18;;;;;;;0.40;0.40;;;;;;;;;;10380270;28;20713;-73
2022/07/05 13:34:23;;;;;;;0.98;0.60;;;;;;;;;;10378772;28;20215;-73
2022/07/05 13:39:24;;;;;;;0.95;0.40;;;;;;;;;;10378915;28;20200;-72
2022/07/05 13:44:26;;;;;;;1.50;0.50;;;;;;;;;;10379112;28;20745;-72
2022/07/05 13:49:27;;;;;;;2.05;0.50;;;;;;;;;;10379708;28;20207;-73
2022/07/05 13:54:29;;;;;;;2.75;0.60;;;;;;;;;;10379219;28;20187;-73
2022/07/05 13:59:30;;;;;;;2.92;0.50;;;;;;;;;;10379514;28;20639;-73
2022/07/05 14:04:33;;;;;;;1.38;0.60;;;;;;;;;;10379234;28;20228;-76
2022/07/05 14:09:34;;;;;;;4.00;0.50;;;;;;;;;;10379136;28;20220;-75
2022/07/05 14:14:35;;;;;;;0.55;0.50;;;;;;;;;;10378177;28;20188;-73
2022/07/05 14:19:36;;;;;;;0.65;0.28;;;;;;;;;;10379608;28;20610;-73
2022/07/05 14:24:38;;;;;;;0.65;0.30;;;;;;;;;;10377446;28;20212;-73
2022/07/05 14:29:39;;;;;;;0.45;0.40;;;;;;;;;;10376805;28;20193;-75
2022/07/05 14:34:41;;;;;;;1.55;0.40;;;;;;;;;;10377166;28;20226;-76
2022/07/05 14:39:42;;;;;;;2.80;0.50;;;;;;;;;;10375145;28;20358;-73
2022/07/05 14:44:44;;;;;;;1.60;0.30;;;;;;;;;;10379204;28;20523;-73
2022/07/05 14:49:45;;;;;;;0.75;0.40;;;;;;;;;;10386275;28;20277;-74
2022/07/05 14:54:46;;;;;;;0.70;0.50;;;;;;;;;;10386342;28;20207;-74
2022/07/05 14:59:47;;;;;;;0.63;0.40;;;;;;;;;;10386865;28;20350;-74
2022/07/05 15:04:48;;;;;;;0.93;0.50;;;;;;;;;;10384710;28;20227;-75
2022/07/05 15:09:49;;;;;;;0.93;0.30;;;;;;;;;;10385867;28;20227;-73
2022/07/05 15:14:50;;;;;;;3.10;0.40;;;;;;;;;;10385229;28;20304;-76
2022/07/05 15:19:51;;;;;;;2.08;0.38;;;;;;;;;;10384571;28;20208;-73
2022/07/05 15:24:54;;;;;;;0.30;0.30;;;;;;;;;;10383965;28;20266;-75
2022/07/05 15:29:55;;;;;;;1.25;0.40;;;;;;;;;;10388595;28;20207;-76
2022/07/05 15:34:56;;;;;;;1.30;0.30;;;;;;;;;;10380689;28;20271;-74
2022/07/05 15:39:58;;;;;;;0.88;0.35;;;;;;;;;;10386554;28;20191;-77
2022/07/05 15:44:59;;;;;;;0.30;0.30;;;;;;;;;;10350471;28;20219;-75
2022/07/05 15:50:01;;;;;;;1.33;0.20;;;;;;;;;;10384032;28;20211;-76
2022/07/05 15:55:02;;;;;;;0.30;0.30;;;;;;;;;;10384333;28;20304;-73
2022/07/05 16:00:04;;;;;;;5.32;0.60;;;;;;;;;;10383296;28;20199;-76
2022/07/05 16:05:08;;;;;;;1.83;0.70;;;;;;;;;;10382371;28;20231;-75
2022/07/05 16:10:09;;;;;;;1.08;0.40;;;;;;;;;;10383180;28;20598;-75
2022/07/05 16:16:10;;;;;;;1.17;0.40;;;;;;;;;;10382448;28;20258;-74
2022/07/05 16:20:31;;;;;;;0.30;0.30;;;;;;;;;;10381946;28;20695;-76
2022/07/05 16:25:32;;;;;;;0.40;0.40;;;;;;;;;;10381436;28;20625;-74
2022/07/05 16:30:33;;;;;;;0.40;0.40;;;;;;;;;;10371796;28;20221;-75
2022/07/05 16:35:34;;;;;;;0.30;0.30;;;;;;;;;;10362469;28;20203;-75
2022/07/05 16:40:35;;;;;;;3.03;0.35;;;;;;;;;;10381359;28;20202;-73
2022/07/05 16:45:36;;;;;;;1.95;0.30;;;;;;;;;;10380379;28;20706;-75
2022/07/05 16:50:38;;;;;;;0.30;0.30;;;;;;;;;;10380784;28;20389;-75
2022/07/05 16:55:39;;;;;;;0.25;0.25;;;;;;;;;;10381758;28;20204;-77
2022/07/05 17:00:40;;;;;;;0.30;0.30;;;;;;;;;;10360511;28;20227;-76
2022/07/05 17:05:41;;;;;;;3.80;0.40;;;;;;;;;;10380616;28;20219;-74
2022/07/05 17:10:42;;;;;;;0.35;0.30;;;;;;;;;;10360054;28;20192;-78
2022/07/05 17:15:43;;;;;;;1.02;0.20;;;;;;;;;;10380074;28;20192;-75
2022/07/05 17:20:44;;;;;;;2.42;0.20;;;;;;;;;;10381060;28;20212;-77
2022/07/05 17:25:45;;;;;;;0.20;0.20;;;;;;;;;;10379613;28;20212;-78
2022/07/05 17:30:46;;;;;;;3.15;0.65;;;;;;;;;;10379154;28;20230;-77
2022/07/05 17:35:47;;;;;;;0.30;0.30;;;;;;;;;;10379756;28;20320;-77
2022/07/05 17:40:48;;;;;;;0.50;0.35;;;;;;;;;;10378944;28;20187;-78
2022/07/05 17:45:49;;;;;;;0.30;0.30;;;;;;;;;;10381037;28;20315;-77
2022/07/05 17:50:51;;;;;;;0.30;0.30;;;;;;;;;;10376917;28;20569;-79
2022/07/05 17:55:52;;;;;;;1.65;0.30;;;;;;;;;;10379825;28;20200;-78
2022/07/05 18:00:53;;;;;;;2.72;0.50;;;;;;;;;;10379652;28;20219;-76
2022/07/05 18:05:54;;;;;;;0.70;0.20;;;;;;;;;;10380695;28;20214;-75
2022/07/05 18:10:55;;;;;;;1.00;0.43;;;;;;;;;;10380458;28;20248;-76
2022/07/05 18:15:57;;;;;;;1.67;0.30;;;;;;;;;;10379132;28;20200;-75
2022/07/05 18:20:58;;;;;;;1.17;0.20;;;;;;;;;;10379403;28;20219;-76
2022/07/05 18:25:59;;;;;;;0.30;0.30;;;;;;;;;;10380734;28;20282;-76
2022/07/05 18:31:00;;;;;;;3.13;0.47;;;;;;;;;;10379700;28;20834;-77
2022/07/05 18:36:01;;;;;;;4.55;0.50;;;;;;;;;;10362959;28;20198;-77
2022/07/05 18:41:02;;;;;;;0.30;0.30;;;;;;;;;;10386308;28;20267;-77
2022/07/05 18:46:03;;;;;;;2.92;0.38;;;;;;;;;;10383298;28;20652;-76
2022/07/05 18:51:04;;;;;;;2.38;0.40;;;;;;;;;;10392184;28;20216;-78
2022/07/05 18:56:06;;;;;;;1.38;0.30;;;;;;;;;;10357286;28;20627;-70
2022/07/05 19:01:07;;;;;;;1.52;0.30;;;;;;;;;;10368567;28;20683;-72
2022/07/05 19:16:47;;;;;;;0.30;0.30;;;;;;;;;;10376498;28;20202;-69
2022/07/05 19:21:48;;;;;;;0.40;0.40;;;;;;;;;;10368224;28;20202;-70
2022/07/05 19:26:50;;;;;;;3.58;0.30;;;;;;;;;;10377191;28;20218;-71
2022/07/05 19:31:51;;;;;;;0.30;0.30;;;;;;;;;;10373001;28;20274;-72
2022/07/05 19:36:52;;;;;;;0.40;0.28;;;;;;;;;;10364902;28;20192;-68
2022/07/05 19:41:53;;;;;;;1.15;0.40;;;;;;;;;;10385236;28;20184;-68
2022/07/05 19:46:54;;;;;;;1.55;0.47;;;;;;;;;;10383618;28;20741;-70
2022/07/05 19:51:55;;;;;;;0.95;0.30;;;;;;;;;;10384232;28;20211;-69
2022/07/05 19:56:57;;;;;;;2.00;0.45;;;;;;;;;;10387828;28;20198;-78
2022/07/05 20:01:58;;;;;;;0.65;0.40;;;;;;;;;;10388044;28;20228;-78
2022/07/05 20:06:59;;;;;;;1.70;0.40;;;;;;;;;;10383495;28;20226;-78
2022/07/05 20:12:00;;;;;;;1.63;0.50;;;;;;;;;;10384276;28;20829;-78
2022/07/05 20:17:01;;;;;;;0.30;0.30;;;;;;;;;;10384450;28;20600;-78
2022/07/05 20:22:02;;;;;;;2.50;0.35;;;;;;;;;;10384544;28;20216;-78
2022/07/05 20:27:03;;;;;;;1.48;0.35;;;;;;;;;;10385246;28;20239;-78
2022/07/05 20:32:05;;;;;;;0.82;0.47;;;;;;;;;;10385156;28;20585;-78
2022/07/05 20:37:06;;;;;;;2.90;0.40;;;;;;;;;;10383769;28;20589;-78
2022/07/05 20:42:07;;;;;;;1.38;0.30;;;;;;;;;;10378983;28;20691;-79
2022/07/05 20:47:08;;;;;;;0.20;0.20;;;;;;;;;;10383397;28;20227;-79
2022/07/05 20:52:09;;;;;;;0.52;0.38;;;;;;;;;;10385775;28;20659;-78
2022/07/05 20:57:11;;;;;;;0.47;0.47;;;;;;;;;;10385373;28;20774;-78
2022/07/05 21:02:12;;;;;;;3.53;0.30;;;;;;;;;;10381081;28;20215;-79
2022/07/05 21:07:14;;;;;;;3.13;0.47;;;;;;;;;;10384752;28;20600;-79
2022/07/05 21:12:15;;;;;;;0.45;0.40;;;;;;;;;;10427294;28;20789;-79
2022/07/05 21:17:16;;;;;;;1.42;0.40;;;;;;;;;;10421942;28;20214;-78
2022/07/05 21:22:17;;;;;;;0.70;0.30;;;;;;;;;;10426796;28;20188;-78
2022/07/05 21:27:18;;;;;;;1.00;0.40;;;;;;;;;;10420837;28;20840;-79
2022/07/05 21:32:19;;;;;;;1.08;0.35;;;;;;;;;;10426030;28;20242;-79
2022/07/05 21:37:20;;;;;;;2.10;0.40;;;;;;;;;;10411175;28;20225;-79
2022/07/05 21:42:22;;;;;;;0.98;0.50;;;;;;;;;;10421038;28;20245;-79
2022/07/05 21:47:23;;;;;;;0.50;0.50;;;;;;;;;;10421155;28;20218;-79
2022/07/05 21:52:24;;;;;;;0.65;0.60;;;;;;;;;;10423609;28;20241;-79
2022/07/05 21:57:25;;;;;;;0.40;0.40;;;;;;;;;;10425316;28;20187;-79
2022/07/05 22:07:46;;;;;;;0.47;0.40;;;;;;;;;;10421440;28;20261;-79
2022/07/05 22:12:47;;;;;;;1.33;0.57;;;;;;;;;;10420281;28;20180;-79
2022/07/05 22:17:48;;;;;;;3.05;0.52;;;;;;;;;;10424725;28;20214;-80
2022/07/05 22:22:49;;;;;;;1.55;0.57;;;;;;;;;;10413530;28;20508;-80
2022/07/05 22:27:50;;;;;;;2.10;0.57;;;;;;;;;;10425188;28;20302;-80
2022/07/05 22:32:51;;;;;;;2.13;0.60;;;;;;;;;;10417942;28;20246;-79
2022/07/05 22:37:52;;;;;;;1.65;0.43;;;;;;;;;;10393294;28;20188;-79
2022/07/05 22:42:53;;;;;;;3.20;0.70;;;;;;;;;;10409317;28;20297;-79
2022/07/05 22:47:54;;;;;;;2.40;0.50;;;;;;;;;;10411501;28;20230;-79
2022/07/05 22:52:55;;;;;;;1.25;0.57;;;;;;;;;;10421522;28;20195;-80
2022/07/05 22:57:57;;;;;;;0.50;0.50;;;;;;;;;;10425159;28;20198;-80
2022/07/05 23:02:59;;;;;;;1.63;0.60;;;;;;;;;;10435895;28;20250;-79
2022/07/05 23:08:00;;;;;;;2.05;0.50;;;;;;;;;;10421749;28;20223;-78
2022/07/05 23:13:01;;;;;;;0.50;0.50;;;;;;;;;;10431530;28;20195;-79
2022/07/05 23:18:02;;;;;;;2.92;0.60;;;;;;;;;;10430602;28;20651;-79
2022/07/05 23:23:04;;;;;;;0.80;0.60;;;;;;;;;;10409417;28;20276;-79
2022/07/05 23:28:06;;;;;;;2.40;0.50;;;;;;;;;;10412116;28;20587;-79
2022/07/05 23:33:07;;;;;;;0.40;0.40;;;;;;;;;;10426884;28;20227;-80
2022/07/05 23:38:08;;;;;;;4.47;0.68;;;;;;;;;;10430158;28;20585;-77
2022/07/05 23:43:09;;;;;;;2.05;0.50;;;;;;;;;;10426627;28;20191;-79
2022/07/05 23:48:10;;;;;;;0.60;0.60;;;;;;;;;;10427038;28;20215;-78
2022/07/05 23:53:11;;;;;;;1.88;0.70;;;;;;;;;;10425191;28;20226;-78
2022/07/05 23:58:12;;;;;;;0.95;0.57;;;;;;;;;;10431233;28;20287;-77
